Time;durP1;ratioP1;P1;durP2;ratioP2;P2;SDS_P1;SDS_P2;PMS_P1;PMS_P2;Temp;Humidity;BMP_temperature;BMP_pressure;BME280_temperature;BME280_humidity;BME280_pressure;Samples;Min_cycle;Max_cycle;Signal;HPM_P1;HPM_P2
2023/04/07 00:00:55;;;;;;;15.32;7.25;;;14.70;97.10;;;;;;5015669;28;20099;-80
2023/04/07 00:03:22;;;;;;;13.10;7.95;;;14.70;97.10;;;;;;5015567;28;20037;-72
2023/04/07 00:05:47;;;;;;;14.50;7.38;;;14.70;97.10;;;;;;5015337;28;20458;-77
2023/04/07 00:08:13;;;;;;;14.55;7.72;;;14.70;97.00;;;;;;5015372;28;20123;-74
2023/04/07 00:10:39;;;;;;;19.98;8.23;;;14.70;97.00;;;;;;5015114;28;20022;-76
2023/04/07 00:13:04;;;;;;;17.08;8.48;;;14.60;97.00;;;;;;5015482;28;20033;-77
2023/04/07 00:15:30;;;;;;;14.32;7.30;;;14.60;97.00;;;;;;5015051;28;20050;-75
2023/04/07 00:17:55;;;;;;;15.63;7.63;;;14.60;96.90;;;;;;5015317;28;20069;-74
2023/04/07 00:20:21;;;;;;;16.10;7.35;;;14.60;96.90;;;;;;5015212;28;20038;-74
2023/04/07 00:22:47;;;;;;;14.73;6.93;;;14.60;96.90;;;;;;5014472;28;20395;-76
2023/04/07 00:25:13;;;;;;;12.80;7.00;;;14.60;96.90;;;;;;5014167;28;20018;-69
2023/04/07 00:27:38;;;;;;;13.05;6.88;;;14.50;96.80;;;;;;5014051;28;20105;-74
2023/04/07 00:30:05;;;;;;;13.57;5.55;;;14.50;96.90;;;;;;5014421;28;20394;-71
2023/04/07 00:32:30;;;;;;;13.93;6.50;;;14.50;96.90;;;;;;5015192;28;20467;-72
2023/04/07 00:34:56;;;;;;;10.02;5.70;;;14.50;96.80;;;;;;5014878;28;20066;-76
2023/04/07 00:37:21;;;;;;;14.75;6.22;;;14.50;96.80;;;;;;5014094;28;20057;-74
2023/04/07 00:39:47;;;;;;;11.52;6.07;;;14.50;97.20;;;;;;5014799;28;20053;-77
2023/04/07 00:42:12;;;;;;;9.93;5.75;;;14.50;96.90;;;;;;5015025;28;20100;-71
2023/04/07 00:44:38;;;;;;;11.10;5.60;;;14.50;96.90;;;;;;5014952;28;20530;-75
2023/04/07 00:47:04;;;;;;;8.45;5.20;;;14.50;97.00;;;;;;5014392;28;20116;-71
2023/04/07 00:49:30;;;;;;;10.80;5.60;;;14.40;97.10;;;;;;5014924;28;20072;-69
2023/04/07 00:51:59;;;;;;;11.85;5.95;;;14.50;97.10;;;;;;5014476;28;20466;-75
2023/04/07 00:54:25;;;;;;;10.27;6.07;;;14.50;97.10;;;;;;5014377;28;20036;-74
2023/04/07 00:56:52;;;;;;;10.00;6.72;;;14.50;97.20;;;;;;5014535;28;20026;-74
2023/04/07 00:59:18;;;;;;;13.05;6.28;;;14.50;97.20;;;;;;5014579;28;20026;-73
2023/04/07 01:01:47;;;;;;;13.30;6.07;;;14.50;97.20;;;;;;5014826;28;20093;-73
2023/04/07 01:04:20;;;;;;;8.88;5.57;;;14.40;97.20;;;;;;5014563;28;20053;-72
2023/04/07 01:06:50;;;;;;;13.25;7.20;;;14.40;97.20;;;;;;5014086;28;20034;-74
2023/04/07 01:09:21;;;;;;;11.43;6.47;;;14.40;97.20;;;;;;5014216;28;20025;-72
2023/04/07 01:12:02;;;;;;;10.73;6.22;;;14.40;97.10;;;;;;5014074;28;20387;-73
2023/04/07 01:14:33;;;;;;;11.60;6.18;;;14.40;97.20;;;;;;5014088;28;20475;-73
2023/04/07 01:17:02;;;;;;;12.52;6.68;;;14.40;97.10;;;;;;5013818;28;20021;-75
2023/04/07 01:19:44;;;;;;;9.52;5.82;;;14.40;97.20;;;;;;5014246;28;20060;-70
2023/04/07 01:22:13;;;;;;;12.32;6.75;;;14.40;97.20;;;;;;5014045;28;20028;-80
2023/04/07 01:25:19;;;;;;;11.57;7.10;;;14.40;97.30;;;;;;5013704;28;20046;-74
2023/04/07 01:28:08;;;;;;;10.15;5.85;;;14.40;97.10;;;;;;5014127;28;20029;-73
2023/04/07 01:30:39;;;;;;;10.85;7.00;;;14.30;97.20;;;;;;4994913;28;20172;-75
2023/04/07 01:33:05;;;;;;;10.23;5.97;;;14.30;97.20;;;;;;5013884;28;20116;-79
2023/04/07 01:35:33;;;;;;;9.73;6.07;;;14.30;97.10;;;;;;5013686;28;20033;-78
2023/04/07 01:37:59;;;;;;;11.00;6.30;;;14.30;97.00;;;;;;5013460;28;20472;-78
2023/04/07 01:40:26;;;;;;;8.82;5.45;;;14.30;97.00;;;;;;5013767;28;20033;-74
2023/04/07 01:42:54;;;;;;;8.55;5.60;;;14.30;97.00;;;;;;5013900;28;20041;-76
2023/04/07 01:45:21;;;;;;;11.27;6.40;;;14.30;97.00;;;;;;5013895;28;20026;-80
2023/04/07 01:47:47;;;;;;;11.50;5.97;;;14.30;96.90;;;;;;5013419;28;20022;-74
2023/04/07 01:50:13;;;;;;;12.43;6.07;;;14.20;96.90;;;;;;5013848;28;20137;-74
2023/04/07 01:52:39;;;;;;;9.73;6.07;;;14.20;97.00;;;;;;5013249;28;20085;-76
2023/04/07 01:55:05;;;;;;;9.77;6.43;;;14.20;97.10;;;;;;5013662;28;20037;-76
2023/04/07 01:57:31;;;;;;;8.05;5.82;;;14.20;97.10;;;;;;5013801;28;20030;-71
2023/04/07 01:59:57;;;;;;;8.73;5.57;;;14.20;97.10;;;;;;5012568;28;20026;-68
2023/04/07 02:02:23;;;;;;;9.98;5.65;;;14.20;97.20;;;;;;5013406;28;20072;-73
2023/04/07 02:04:55;;;;;;;8.77;5.65;;;14.10;97.10;;;;;;5013375;28;20025;-74
2023/04/07 02:07:56;;;;;;;8.10;4.85;;;14.10;97.20;;;;;;5012903;28;20478;-77
2023/04/07 02:10:25;;;;;;;12.43;5.32;;;14.10;97.20;;;;;;5013425;28;20514;-74
2023/04/07 02:12:51;;;;;;;10.93;5.78;;;14.10;97.10;;;;;;5013200;28;20048;-78
2023/04/07 02:15:18;;;;;;;8.30;4.90;;;14.10;97.20;;;;;;5013089;28;20472;-74
2023/04/07 02:17:48;;;;;;;8.70;5.35;;;14.10;97.20;;;;;;5013205;28;20041;-78
2023/04/07 02:20:15;;;;;;;9.82;5.65;;;14.10;97.20;;;;;;5013183;28;20551;-69
2023/04/07 02:22:41;;;;;;;9.80;5.53;;;14.10;97.20;;;;;;5012725;28;20025;-75
2023/04/07 02:25:31;;;;;;;9.73;5.38;;;14.10;97.30;;;;;;5013079;28;20455;-78
2023/04/07 02:27:58;;;;;;;9.82;6.18;;;14.10;97.20;;;;;;5012947;28;20060;-72
2023/04/07 02:30:25;;;;;;;12.32;6.13;;;14.00;97.20;;;;;;5013341;28;20360;-76
2023/04/07 02:32:51;;;;;;;11.18;6.00;;;14.00;97.20;;;;;;5012979;28;20022;-72
2023/04/07 02:35:17;;;;;;;12.55;6.25;;;14.00;97.20;;;;;;5012687;28;20053;-78
2023/04/07 02:37:44;;;;;;;10.40;6.78;;;14.00;97.20;;;;;;5012852;28;20065;-75
2023/04/07 02:40:10;;;;;;;11.82;6.80;;;14.00;97.20;;;;;;5012864;28;20149;-79
2023/04/07 02:42:35;;;;;;;11.95;6.80;;;14.00;97.20;;;;;;5012817;28;20518;-76
2023/04/07 02:45:02;;;;;;;10.63;7.15;;;13.90;97.20;;;;;;5012709;28;20382;-74
2023/04/07 02:47:28;;;;;;;10.07;7.07;;;13.90;97.20;;;;;;5012840;28;20508;-78
2023/04/07 02:49:53;;;;;;;9.68;6.80;;;13.90;97.30;;;;;;5012478;28;20101;-74
2023/04/07 02:52:19;;;;;;;12.05;7.28;;;13.90;97.40;;;;;;5012682;28;20144;-71
2023/04/07 02:54:45;;;;;;;10.27;6.82;;;13.90;97.60;;;;;;5012630;28;20030;-75
2023/04/07 02:57:10;;;;;;;11.65;7.53;;;13.90;97.30;;;;;;5012641;28;20387;-78
2023/04/07 02:59:36;;;;;;;12.00;7.68;;;13.90;97.30;;;;;;5012589;28;20038;-76
2023/04/07 03:02:01;;;;;;;11.73;7.97;;;13.90;97.30;;;;;;5012916;28;20033;-76
2023/04/07 03:04:27;;;;;;;11.80;8.38;;;13.80;97.40;;;;;;5012245;28;20033;-73
2023/04/07 03:06:52;;;;;;;12.82;7.80;;;13.90;97.40;;;;;;5012638;28;20033;-77
2023/04/07 03:09:18;;;;;;;11.05;7.30;;;13.80;97.40;;;;;;5012412;28;20033;-73
2023/04/07 03:11:43;;;;;;;14.52;8.65;;;13.90;97.30;;;;;;5016554;28;20041;-77
2023/04/07 03:14:09;;;;;;;10.57;7.63;;;13.80;97.40;;;;;;5016485;28;20030;-75
2023/04/07 03:16:35;;;;;;;10.55;7.97;;;13.80;97.40;;;;;;5016509;28;20041;-77
2023/04/07 03:19:00;;;;;;;11.10;7.68;;;13.80;97.40;;;;;;5016171;28;20052;-73
2023/04/07 03:21:27;;;;;;;12.48;7.60;;;13.70;97.40;;;;;;5016382;28;20040;-76
2023/04/07 03:23:53;;;;;;;10.52;8.20;;;13.80;97.40;;;;;;5016278;28;20030;-80
2023/04/07 03:26:19;;;;;;;9.85;7.35;;;13.80;97.30;;;;;;5016343;28;20018;-76
2023/04/07 03:28:44;;;;;;;12.65;8.15;;;13.80;97.30;;;;;;5016186;28;20037;-78
2023/04/07 03:31:10;;;;;;;13.25;8.65;;;13.70;97.30;;;;;;5016490;28;20033;-79
2023/04/07 03:33:36;;;;;;;12.18;8.88;;;13.70;97.30;;;;;;5015852;28;20479;-75
2023/04/07 03:36:01;;;;;;;11.77;9.35;;;13.70;97.20;;;;;;5016124;28;20103;-78
2023/04/07 03:38:27;;;;;;;12.57;9.00;;;13.70;97.20;;;;;;5016064;28;20105;-75
2023/04/07 03:40:53;;;;;;;14.52;9.07;;;13.70;97.30;;;;;;5015994;28;20022;-76
2023/04/07 03:43:18;;;;;;;14.57;9.38;;;13.70;97.20;;;;;;5016088;28;20026;-81
2023/04/07 03:45:45;;;;;;;15.48;10.40;;;13.70;97.10;;;;;;5016093;28;20032;-75
2023/04/07 03:48:11;;;;;;;13.85;10.18;;;13.70;97.20;;;;;;4998237;28;20514;-78
2023/04/07 03:50:38;;;;;;;14.65;10.35;;;13.60;97.10;;;;;;5015708;28;20033;-81
2023/04/07 03:53:03;;;;;;;12.98;9.20;;;13.60;97.10;;;;;;5015735;28;20033;-81
2023/04/07 03:55:29;;;;;;;12.75;9.70;;;13.60;97.10;;;;;;5015724;28;20029;-77
2023/04/07 03:57:55;;;;;;;13.88;10.57;;;13.60;97.00;;;;;;5015963;28;20517;-82
2023/04/07 04:00:20;;;;;;;15.55;9.90;;;13.60;97.10;;;;;;5015556;28;20030;-74
2023/04/07 04:02:46;;;;;;;14.02;10.77;;;13.50;97.00;;;;;;5015440;28;20033;-80
2023/04/07 04:05:11;;;;;;;13.88;11.38;;;13.50;97.00;;;;;;5015561;28;20057;-72
2023/04/07 04:07:37;;;;;;;17.23;11.77;;;13.50;97.00;;;;;;5015374;28;20018;-68
2023/04/07 04:10:03;;;;;;;14.50;10.70;;;13.50;97.00;;;;;;5015320;28;20379;-77
2023/04/07 04:12:28;;;;;;;16.98;11.23;;;13.50;96.90;;;;;;5015499;28;20026;-75
2023/04/07 04:14:54;;;;;;;19.15;12.88;;;13.50;96.90;;;;;;5015294;28;20034;-76
2023/04/07 04:17:20;;;;;;;15.07;11.73;;;13.40;96.80;;;;;;5015212;28;20118;-75
2023/04/07 04:19:45;;;;;;;23.52;13.48;;;13.40;96.80;;;;;;5015414;28;20026;-75
2023/04/07 04:22:11;;;;;;;14.48;11.32;;;13.40;96.40;;;;;;5014438;28;20041;-79
2023/04/07 04:24:36;;;;;;;13.75;10.32;;;13.30;96.00;;;;;;5015160;28;20413;-76
2023/04/07 04:27:02;;;;;;;13.13;9.95;;;13.30;96.10;;;;;;5015180;28;20105;-72
2023/04/07 04:29:28;;;;;;;14.07;10.35;;;13.30;96.10;;;;;;5015220;28;20379;-73
2023/04/07 04:31:53;;;;;;;14.95;11.30;;;13.20;96.20;;;;;;5015010;28;20052;-80
2023/04/07 04:34:19;;;;;;;13.73;10.15;;;13.20;96.20;;;;;;5015068;28;20502;-77
2023/04/07 04:36:44;;;;;;;15.07;11.85;;;13.10;96.10;;;;;;5014833;28;20025;-76
2023/04/07 04:39:10;;;;;;;13.43;11.80;;;13.10;96.10;;;;;;5014840;28;20024;-73
2023/04/07 04:41:36;;;;;;;14.02;11.23;;;13.10;96.10;;;;;;4997283;28;20028;-79
2023/04/07 04:44:01;;;;;;;15.63;12.35;;;13.10;96.10;;;;;;5015240;28;20025;-75
2023/04/07 04:46:27;;;;;;;16.00;11.85;;;13.10;96.10;;;;;;5014483;28;20030;-73
2023/04/07 04:48:53;;;;;;;19.52;13.75;;;13.10;96.20;;;;;;5015247;28;20033;-71
2023/04/07 04:51:19;;;;;;;19.17;13.77;;;13.10;96.20;;;;;;5014779;28;20025;-76
2023/04/07 04:53:44;;;;;;;19.80;13.65;;;13.10;96.20;;;;;;5014681;28;20038;-68
2023/04/07 04:56:10;;;;;;;17.40;13.13;;;13.10;96.30;;;;;;5014892;28;20510;-79
2023/04/07 04:58:39;;;;;;;17.95;13.77;;;13.00;96.30;;;;;;5014507;28;20463;-71
2023/04/07 05:01:04;;;;;;;16.40;13.02;;;13.10;96.40;;;;;;5013491;28;20038;-76
2023/04/07 05:03:30;;;;;;;21.08;14.88;;;13.10;96.30;;;;;;5014133;28;20494;-79
2023/04/07 05:05:56;;;;;;;20.60;13.40;;;13.10;96.40;;;;;;5014290;28;20034;-69
2023/04/07 05:08:21;;;;;;;20.73;12.63;;;13.10;96.70;;;;;;5006638;28;20102;-73
2023/04/07 05:10:47;;;;;;;16.58;13.38;;;13.10;96.80;;;;;;5011619;28;20074;-80
2023/04/07 05:13:13;;;;;;;15.45;12.68;;;13.10;96.90;;;;;;5009729;28;20030;-75
2023/04/07 05:15:40;;;;;;;21.98;13.93;;;13.10;97.00;;;;;;5005061;28;20042;-74
2023/04/07 05:18:06;;;;;;;19.33;12.77;;;13.00;97.00;;;;;;5013433;28;20022;-77
2023/04/07 05:20:31;;;;;;;18.98;14.73;;;13.00;97.00;;;;;;5014120;28;20652;-75
2023/04/07 05:22:57;;;;;;;16.52;13.23;;;13.00;96.90;;;;;;5011313;28;20025;-71
2023/04/07 05:25:22;;;;;;;19.10;14.35;;;13.00;96.90;;;;;;5020617;28;20103;-77
2023/04/07 05:27:49;;;;;;;21.85;14.32;;;13.00;96.90;;;;;;5017355;28;20379;-76
2023/04/07 05:30:15;;;;;;;17.00;13.77;;;13.00;97.00;;;;;;5013527;28;20034;-72
2023/04/07 05:32:41;;;;;;;16.33;13.20;;;13.00;96.90;;;;;;5012053;28;20474;-78
2023/04/07 05:35:07;;;;;;;19.48;13.82;;;13.00;96.90;;;;;;5012549;28;20045;-81
2023/04/07 05:37:32;;;;;;;17.17;12.65;;;13.00;96.90;;;;;;5013581;28;20025;-78
2023/04/07 05:39:58;;;;;;;20.17;13.35;;;13.00;96.90;;;;;;5012610;28;20068;-74
2023/04/07 05:42:23;;;;;;;18.10;12.45;;;13.00;96.80;;;;;;5012917;28;20357;-78
2023/04/07 05:44:49;;;;;;;16.70;12.80;;;13.00;96.90;;;;;;5012807;28;20040;-75
2023/04/07 05:47:15;;;;;;;17.60;13.23;;;13.00;96.90;;;;;;5012114;28;20498;-74
2023/04/07 05:49:44;;;;;;;17.88;12.80;;;13.00;97.00;;;;;;5008180;28;20711;-75
2023/04/07 05:52:11;;;;;;;17.88;12.75;;;13.00;97.00;;;;;;5012004;28;20025;-73
2023/04/07 05:54:39;;;;;;;15.85;12.82;;;12.90;97.10;;;;;;5012094;28;20045;-71
2023/04/07 05:57:04;;;;;;;19.38;13.35;;;12.90;97.10;;;;;;5013212;28;20026;-79
2023/04/07 05:59:30;;;;;;;16.27;12.52;;;13.00;97.20;;;;;;5012381;28;20025;-78
2023/04/07 06:01:55;;;;;;;18.35;13.10;;;12.90;97.20;;;;;;5013108;28;20061;-72
2023/04/07 06:04:21;;;;;;;19.33;12.95;;;13.00;97.30;;;;;;5013077;28;20464;-74
2023/04/07 06:06:46;;;;;;;18.55;14.15;;;13.00;97.20;;;;;;5011551;28;20017;-80
2023/04/07 06:09:12;;;;;;;16.10;13.18;;;13.10;97.10;;;;;;5011037;28;20109;-69
2023/04/07 06:11:37;;;;;;;18.88;14.02;;;13.20;97.10;;;;;;5013087;28;20030;-76
2023/04/07 06:14:03;;;;;;;16.02;11.70;;;13.10;97.10;;;;;;5011773;28;20034;-72
2023/04/07 06:16:29;;;;;;;18.15;12.63;;;13.20;97.20;;;;;;5012769;28;20042;-77
2023/04/07 06:18:54;;;;;;;23.90;12.15;;;13.20;97.30;;;;;;5012328;28;20029;-77
2023/04/07 06:21:21;;;;;;;16.27;10.73;;;13.20;97.30;;;;;;5014561;28;20409;-69
2023/04/07 06:23:46;;;;;;;16.60;11.32;;;13.10;97.40;;;;;;5011524;28;20022;-71
2023/04/07 06:26:12;;;;;;;12.68;9.50;;;13.20;97.40;;;;;;5011096;28;20117;-73
2023/04/07 06:28:38;;;;;;;12.48;8.80;;;13.20;97.50;;;;;;5012051;28;20037;-74
2023/04/07 06:31:04;;;;;;;13.68;8.85;;;13.20;97.30;;;;;;5013163;28;20467;-71
2023/04/07 06:33:30;;;;;;;10.85;7.70;;;13.20;97.40;;;;;;5011877;28;20454;-70
2023/04/07 06:35:56;;;;;;;11.77;7.78;;;13.20;97.40;;;;;;5013736;28;20539;-75
2023/04/07 06:38:22;;;;;;;13.55;7.00;;;13.20;97.40;;;;;;5010822;28;20018;-75
2023/04/07 06:40:47;;;;;;;8.10;6.07;;;13.20;97.40;;;;;;5012583;28;20069;-75
2023/04/07 06:43:13;;;;;;;9.60;5.57;;;13.20;97.30;;;;;;5011191;28;20024;-73
2023/04/07 06:45:38;;;;;;;7.63;4.68;;;13.30;97.10;;;;;;5011566;28;20479;-72
2023/04/07 06:48:04;;;;;;;10.90;4.68;;;13.30;97.30;;;;;;5011507;28;20088;-71
2023/04/07 06:50:29;;;;;;;7.15;4.95;;;13.20;97.60;;;;;;5012446;28;20026;-74
2023/04/07 06:52:55;;;;;;;12.75;5.60;;;13.20;97.70;;;;;;5010121;28;20079;-70
2023/04/07 06:55:20;;;;;;;13.05;5.13;;;13.20;97.70;;;;;;5012973;28;20403;-75
2023/04/07 06:57:46;;;;;;;8.85;4.22;;;13.20;97.90;;;;;;5010031;28;20030;-71
2023/04/07 07:00:12;;;;;;;7.45;4.30;;;13.30;97.70;;;;;;5009338;28;20037;-76
2023/04/07 07:02:37;;;;;;;7.80;3.83;;;13.30;97.80;;;;;;5012792;28;20464;-72
2023/04/07 07:05:03;;;;;;;8.18;4.03;;;13.30;97.80;;;;;;5010992;28;20026;-78
2023/04/07 07:07:30;;;;;;;7.75;3.72;;;13.30;98.00;;;;;;5010956;28;20036;-77
2023/04/07 07:09:55;;;;;;;6.85;3.45;;;13.30;97.80;;;;;;5009699;28;20101;-72
2023/04/07 07:12:21;;;;;;;7.18;4.00;;;13.30;97.80;;;;;;5008506;28;20117;-73
2023/04/07 07:14:46;;;;;;;8.60;4.07;;;13.20;97.70;;;;;;5014273;28;20044;-76
2023/04/07 07:17:12;;;;;;;8.45;3.33;;;13.30;97.80;;;;;;5003314;28;20053;-71
2023/04/07 07:19:38;;;;;;;7.10;3.10;;;13.30;97.80;;;;;;5012188;28;20020;-78
2023/04/07 07:22:03;;;;;;;5.55;2.85;;;13.20;97.90;;;;;;5012107;28;20022;-76
2023/04/07 07:24:32;;;;;;;8.77;3.60;;;13.20;98.10;;;;;;5011936;28;20107;-78
2023/04/07 07:26:58;;;;;;;5.45;2.78;;;13.30;98.10;;;;;;5012011;28;20024;-77
2023/04/07 07:29:24;;;;;;;6.88;3.03;;;13.30;98.20;;;;;;5011292;28;20022;-72
2023/04/07 07:31:50;;;;;;;6.10;3.13;;;13.30;98.10;;;;;;4994171;28;20029;-70
2023/04/07 07:34:15;;;;;;;4.10;2.50;;;13.30;98.30;;;;;;5011821;28;20092;-77
2023/04/07 07:36:41;;;;;;;6.55;2.40;;;13.40;98.30;;;;;;5012106;28;20022;-78
2023/04/07 07:39:07;;;;;;;7.07;2.78;;;13.50;98.20;;;;;;5012152;28;20026;-69
2023/04/07 07:41:32;;;;;;;7.15;3.15;;;13.50;98.20;;;;;;5011859;28;20061;-73
2023/04/07 07:43:58;;;;;;;6.65;2.60;;;13.50;98.10;;;;;;5011985;28;20033;-73
2023/04/07 07:46:24;;;;;;;8.05;2.55;;;13.50;98.00;;;;;;5012183;28;20479;-70
2023/04/07 07:48:50;;;;;;;6.55;2.78;;;13.50;98.00;;;;;;5012221;28;20022;-73
2023/04/07 07:51:17;;;;;;;5.53;2.10;;;13.50;98.10;;;;;;5012053;28;20022;-75
2023/04/07 07:53:43;;;;;;;5.25;2.60;;;13.50;98.20;;;;;;5012102;28;20030;-74
2023/04/07 07:56:09;;;;;;;3.00;2.08;;;13.50;97.90;;;;;;5009205;28;20093;-77
2023/04/07 07:58:34;;;;;;;5.78;2.40;;;13.60;97.70;;;;;;5013531;28;20038;-73
2023/04/07 08:01:00;;;;;;;4.80;2.05;;;13.60;97.60;;;;;;5015651;28;20034;-79
2023/04/07 08:03:25;;;;;;;5.80;2.40;;;13.60;97.60;;;;;;5014118;28;20415;-75
2023/04/07 08:05:51;;;;;;;9.30;2.25;;;13.60;97.60;;;;;;5012963;28;20513;-80
2023/04/07 08:08:17;;;;;;;5.60;2.35;;;13.60;97.40;;;;;;5015509;28;20464;-70
2023/04/07 08:10:42;;;;;;;5.60;2.05;;;13.60;97.50;;;;;;5013750;28;20475;-75
2023/04/07 08:13:08;;;;;;;5.75;1.80;;;13.60;97.70;;;;;;5013166;28;20025;-78
2023/04/07 08:15:33;;;;;;;4.35;2.05;;;13.70;97.60;;;;;;5014240;28;20507;-81
2023/04/07 08:17:59;;;;;;;6.03;2.30;;;13.70;97.50;;;;;;5007425;28;20479;-71
2023/04/07 08:20:26;;;;;;;6.45;1.98;;;13.80;97.30;;;;;;5003641;28;20093;-72
2023/04/07 08:22:52;;;;;;;4.70;1.90;;;13.70;97.50;;;;;;5007387;28;20022;-74
2023/04/07 08:25:18;;;;;;;4.47;1.50;;;13.80;97.30;;;;;;5000832;28;20022;-71
2023/04/07 08:27:43;;;;;;;7.18;1.67;;;13.90;97.40;;;;;;4978509;28;20022;-72
2023/04/07 08:30:09;;;;;;;7.57;1.60;;;13.90;97.10;;;;;;5014636;28;20327;-74
2023/04/07 08:32:40;;;;;;;5.15;0.93;;;13.90;97.20;;;;;;5013840;28;20025;-77
2023/04/07 08:35:06;;;;;;;5.78;1.50;;;14.00;97.30;;;;;;5013023;28;20391;-73
2023/04/07 08:37:32;;;;;;;6.45;1.38;;;14.00;97.10;;;;;;5013295;28;20562;-73
2023/04/07 08:39:58;;;;;;;5.32;2.03;;;14.00;96.90;;;;;;5014253;28;20022;-71
2023/04/07 08:42:31;;;;;;;7.85;2.03;;;14.10;97.20;;;;;;5013769;28;20105;-72
2023/04/07 08:45:06;;;;;;;10.25;1.98;;;14.10;96.90;;;;;;5026611;28;20052;-73
2023/04/07 08:47:33;;;;;;;7.63;1.98;;;14.10;96.70;;;;;;5028704;28;20044;-76
2023/04/07 08:50:04;;;;;;;6.68;1.50;;;14.10;96.90;;;;;;5034399;28;20017;-73
2023/04/07 08:52:38;;;;;;;5.93;1.55;;;14.20;96.80;;;;;;5034058;28;20063;-75
2023/04/07 08:55:07;;;;;;;8.57;1.58;;;14.20;96.90;;;;;;5013910;28;20107;-73
2023/04/07 08:57:33;;;;;;;9.18;1.98;;;14.20;96.50;;;;;;5012955;28;20414;-78
2023/04/07 09:00:04;;;;;;;5.78;1.58;;;14.20;96.40;;;;;;5011020;28;20042;-71
2023/04/07 09:02:35;;;;;;;7.60;1.88;;;14.30;96.20;;;;;;5012202;28;20010;-73
2023/04/07 09:05:03;;;;;;;6.40;1.40;;;14.30;96.00;;;;;;5015638;28;20069;-75
2023/04/07 09:07:31;;;;;;;7.47;1.63;;;14.30;95.70;;;;;;5029958;28;20029;-76
2023/04/07 09:09:57;;;;;;;9.88;1.83;;;14.30;95.60;;;;;;5013333;28;20022;-70
2023/04/07 09:12:22;;;;;;;8.90;2.55;;;14.30;96.20;;;;;;5011681;28;20037;-81
2023/04/07 09:14:48;;;;;;;9.20;1.60;;;14.30;96.80;;;;;;5005437;28;20063;-74
2023/04/07 09:17:14;;;;;;;10.10;1.92;;;14.30;96.80;;;;;;5000744;28;20049;-71
2023/04/07 09:19:39;;;;;;;8.35;1.70;;;14.30;97.30;;;;;;4987565;28;20076;-71
2023/04/07 09:22:05;;;;;;;10.18;1.83;;;14.40;96.90;;;;;;5007930;28;20028;-75
2023/04/07 09:24:31;;;;;;;10.75;2.20;;;14.30;97.10;;;;;;5010825;28;20030;-72
2023/04/07 09:27:19;;;;;;;11.55;1.98;;;14.40;97.20;;;;;;5010019;28;20017;-74
2023/04/07 09:29:46;;;;;;;7.43;1.67;;;14.40;97.00;;;;;;5013552;28;20187;-77
2023/04/07 09:32:32;;;;;;;9.70;2.20;;;14.40;97.10;;;;;;5012630;28;20037;-78
2023/04/07 09:34:59;;;;;;;9.63;1.90;;;14.40;97.10;;;;;;5012891;28;20519;-72
2023/04/07 09:37:24;;;;;;;7.25;2.03;;;14.40;96.90;;;;;;5012303;28;20022;-72
2023/04/07 09:39:52;;;;;;;9.95;2.00;;;14.40;96.90;;;;;;5006382;28;20032;-71
2023/04/07 09:42:19;;;;;;;10.43;2.00;;;14.40;96.80;;;;;;5006706;28;20060;-69
2023/04/07 09:44:45;;;;;;;10.48;2.10;;;14.40;96.80;;;;;;5006116;28;20029;-74
2023/04/07 09:47:10;;;;;;;8.95;2.00;;;14.40;97.10;;;;;;5001959;28;20038;-73
2023/04/07 09:49:53;;;;;;;12.27;2.20;;;14.40;97.30;;;;;;5006771;28;20022;-70
2023/04/07 09:52:25;;;;;;;10.95;1.67;;;14.50;96.90;;;;;;5005517;28;20131;-71
2023/04/07 09:54:52;;;;;;;8.40;2.00;;;14.50;96.70;;;;;;5007677;28;20120;-70
2023/04/07 09:57:19;;;;;;;6.32;1.83;;;14.50;97.00;;;;;;5008072;28;20049;-69
2023/04/07 09:59:46;;;;;;;8.85;1.48;;;14.60;95.90;;;;;;5007473;28;20060;-71
2023/04/07 10:02:11;;;;;;;6.35;1.80;;;14.50;96.00;;;;;;5009358;28;20055;-75
2023/04/07 10:04:39;;;;;;;14.25;2.30;;;14.50;96.00;;;;;;5010440;28;20866;-75
2023/04/07 10:07:05;;;;;;;7.57;1.70;;;14.50;96.30;;;;;;5013029;28;20030;-68
2023/04/07 10:09:31;;;;;;;7.75;2.00;;;14.50;96.20;;;;;;5010020;28;20033;-68
2023/04/07 10:11:58;;;;;;;7.72;2.17;;;14.50;96.30;;;;;;5007622;28;20026;-73
2023/04/07 10:14:31;;;;;;;8.30;2.35;;;14.50;96.60;;;;;;5010830;28;20080;-73
2023/04/07 10:16:59;;;;;;;7.80;1.98;;;14.60;96.60;;;;;;5008081;28;20522;-72
2023/04/07 10:19:25;;;;;;;8.80;2.17;;;14.60;96.10;;;;;;5009476;28;20076;-72
2023/04/07 10:21:53;;;;;;;9.75;1.83;;;14.60;96.40;;;;;;5000658;28;20037;-73
2023/04/07 10:24:45;;;;;;;6.78;2.10;;;14.60;96.40;;;;;;5016612;28;20022;-74
2023/04/07 10:27:26;;;;;;;10.50;2.28;;;14.70;96.30;;;;;;5006874;28;20037;-72
2023/04/07 10:29:52;;;;;;;9.93;2.35;;;14.70;96.70;;;;;;5010266;28;20022;-70
2023/04/07 10:32:18;;;;;;;8.85;1.70;;;14.70;96.70;;;;;;5010426;28;20674;-67
2023/04/07 10:34:49;;;;;;;8.52;1.75;;;14.80;96.60;;;;;;5008350;28;20034;-77
2023/04/07 10:37:19;;;;;;;8.07;1.33;;;14.80;96.40;;;;;;5010050;28;20092;-69
2023/04/07 10:39:45;;;;;;;7.05;1.77;;;14.90;96.60;;;;;;5010160;28;20038;-68
2023/04/07 10:42:36;;;;;;;9.65;1.60;;;14.90;96.40;;;;;;5011099;28;20037;-71
2023/04/07 10:45:09;;;;;;;8.82;1.70;;;14.90;96.20;;;;;;5007793;28;20127;-67
2023/04/07 10:47:58;;;;;;;14.13;2.22;;;14.90;96.90;;;;;;5014189;28;20117;-65
2023/04/07 10:50:24;;;;;;;8.88;2.00;;;15.00;96.80;;;;;;5005861;28;20034;-69
2023/04/07 10:53:13;;;;;;;8.85;1.70;;;15.00;97.40;;;;;;5006841;28;20068;-69
2023/04/07 10:55:45;;;;;;;5.53;1.65;;;15.00;96.40;;;;;;5008782;28;20104;-69
2023/04/07 10:58:22;;;;;;;9.77;1.75;;;15.00;97.40;;;;;;5009996;28;20033;-67
2023/04/07 11:01:03;;;;;;;9.07;1.83;;;15.10;95.70;;;;;;5008265;28;20033;-67
2023/04/07 11:03:33;;;;;;;8.50;1.80;;;15.10;97.90;;;;;;5006810;28;20120;-67
2023/04/07 11:06:06;;;;;;;8.68;2.22;;;15.10;97.10;;;;;;5008334;28;20038;-65
2023/04/07 11:08:33;;;;;;;12.52;1.80;;;15.10;96.00;;;;;;5001182;28;20025;-66
2023/04/07 11:10:59;;;;;;;4.95;1.50;;;15.10;96.20;;;;;;5002862;28;20040;-66
2023/04/07 11:13:26;;;;;;;7.53;2.00;;;15.10;95.80;;;;;;5006449;28;20042;-65
2023/04/07 11:15:51;;;;;;;9.32;1.90;;;15.10;96.50;;;;;;5002643;28;20069;-66
2023/04/07 11:18:22;;;;;;;10.50;2.22;;;15.10;96.80;;;;;;5005796;28;20507;-67
2023/04/07 11:20:52;;;;;;;6.93;1.73;;;15.20;95.80;;;;;;5010457;28;20096;-65
2023/04/07 11:23:19;;;;;;;8.90;2.08;;;15.20;95.10;;;;;;5004686;28;20105;-64
2023/04/07 11:25:47;;;;;;;8.38;2.50;;;15.20;95.50;;;;;;5008346;28;20502;-63
2023/04/07 11:28:13;;;;;;;11.30;2.47;;;15.20;95.10;;;;;;5009941;28;20026;-63
2023/04/07 11:30:45;;;;;;;11.38;2.40;;;15.20;96.00;;;;;;5008749;28;20030;-63
2023/04/07 11:33:15;;;;;;;11.00;2.20;;;15.20;96.60;;;;;;5014642;28;20026;-66
2023/04/07 11:35:55;;;;;;;7.43;2.40;;;15.20;97.30;;;;;;5008479;28;20132;-65
2023/04/07 11:38:22;;;;;;;7.43;1.75;;;15.30;96.90;;;;;;5005695;28;20472;-65
2023/04/07 11:40:48;;;;;;;10.70;2.20;;;15.30;95.50;;;;;;5018308;28;20032;-65
2023/04/07 11:43:17;;;;;;;6.15;1.90;;;15.20;96.60;;;;;;5010218;28;20030;-65
2023/04/07 11:45:42;;;;;;;8.85;1.60;;;15.30;97.10;;;;;;5009396;28;20030;-65
2023/04/07 11:48:31;;;;;;;7.78;2.03;;;15.30;95.80;;;;;;5003267;28;20430;-66
2023/04/07 11:50:56;;;;;;;7.90;1.70;;;15.30;96.00;;;;;;5002548;28;20414;-66
2023/04/07 11:53:42;;;;;;;11.73;2.38;;;15.30;95.40;;;;;;5012683;28;20482;-65
2023/04/07 11:56:15;;;;;;;7.80;1.98;;;15.30;95.60;;;;;;5003204;28;20052;-66
2023/04/07 11:58:47;;;;;;;12.32;2.47;;;15.30;95.60;;;;;;5005302;28;20036;-64
2023/04/07 12:01:12;;;;;;;17.92;3.20;;;15.30;95.40;;;;;;5004116;28;20030;-64
2023/04/07 12:03:57;;;;;;;12.65;2.72;;;15.30;95.60;;;;;;5010550;28;20034;-65
2023/04/07 12:06:33;;;;;;;8.95;2.28;;;15.30;96.30;;;;;;5011504;28;20060;-65
2023/04/07 12:08:59;;;;;;;6.53;1.83;;;15.30;96.20;;;;;;5015335;28;20034;-65
2023/04/07 12:11:25;;;;;;;5.40;1.48;;;15.30;95.70;;;;;;5023592;28;20423;-65
2023/04/07 12:13:51;;;;;;;10.10;2.00;;;15.30;96.00;;;;;;5013154;28;20613;-64
2023/04/07 12:16:18;;;;;;;9.50;1.95;;;15.30;95.80;;;;;;5023242;28;20257;-64
2023/04/07 12:18:43;;;;;;;7.15;1.90;;;15.30;95.10;;;;;;5014815;28;20034;-63
2023/04/07 12:21:09;;;;;;;10.05;2.08;;;15.30;96.10;;;;;;5005033;28;20453;-63
2023/04/07 12:23:35;;;;;;;9.55;1.88;;;15.30;96.00;;;;;;5009601;28;20033;-64
2023/04/07 12:26:01;;;;;;;8.80;1.90;;;15.30;95.50;;;;;;5014602;28;20030;-63
2023/04/07 12:28:26;;;;;;;7.97;1.75;;;15.30;95.90;;;;;;5012698;28;20030;-65
2023/04/07 12:30:53;;;;;;;10.75;3.10;;;15.30;96.20;;;;;;5022572;28;20061;-64
2023/04/07 12:33:18;;;;;;;11.65;2.00;;;15.30;95.50;;;;;;5011929;28;20028;-64
2023/04/07 12:35:44;;;;;;;7.75;1.92;;;15.40;95.00;;;;;;5011668;28;20029;-64
2023/04/07 12:38:10;;;;;;;5.25;2.20;;;15.40;94.20;;;;;;5014526;28;20061;-63
2023/04/07 12:40:36;;;;;;;11.88;2.22;;;15.40;94.50;;;;;;5009951;28;20108;-63